Time;durP1;ratioP1;P1;durP2;ratioP2;P2;SDS_P1;SDS_P2;PMS_P1;PMS_P2;Temp;Humidity;BMP_temperature;BMP_pressure;BME280_temperature;BME280_humidity;BME280_pressure;Samples;Min_cycle;Max_cycle;Signal;HPM_P1;HPM_P2
2022/03/30 00:01:40;;;;;;;6.72;2.95;;;;;;;4.33;63.18;100344.25;5068040;28;20045;-73
2022/03/30 00:04:06;;;;;;;9.60;3.60;;;;;;;4.29;62.37;100338.31;5068629;28;20131;-73
2022/03/30 00:06:34;;;;;;;11.07;3.38;;;;;;;4.26;61.76;100337.56;5068257;28;20049;-73
2022/03/30 00:09:00;;;;;;;12.45;4.05;;;;;;;4.36;61.58;100329.44;5067399;28;20095;-73
2022/03/30 00:11:27;;;;;;;10.32;3.08;;;;;;;4.24;62.09;100339.38;5068742;28;20724;-73
2022/03/30 00:13:53;;;;;;;8.43;3.60;;;;;;;4.33;62.21;100334.72;5067652;28;20040;-73
2022/03/30 00:16:20;;;;;;;9.85;3.60;;;;;;;4.40;61.76;100330.19;5063307;28;20040;-73
2022/03/30 00:18:46;;;;;;;16.10;4.15;;;;;;;4.35;62.04;100327.75;5067563;28;20098;-73
2022/03/30 00:21:13;;;;;;;7.15;2.97;;;;;;;4.31;61.95;100333.94;5052525;28;20060;-73
2022/03/30 00:23:41;;;;;;;11.50;3.28;;;;;;;4.39;61.43;100325.91;5064804;28;20044;-73
2022/03/30 00:26:07;;;;;;;7.80;3.15;;;;;;;4.33;61.32;100326.09;5065082;28;20094;-73
2022/03/30 00:28:34;;;;;;;12.82;2.58;;;;;;;4.46;61.16;100332.59;5067248;28;20060;-73
2022/03/30 00:31:00;;;;;;;8.88;3.00;;;;;;;4.36;61.69;100323.41;5067557;28;20045;-73
2022/03/30 00:33:27;;;;;;;8.27;3.13;;;;;;;4.17;62.39;100327.50;5068646;28;20044;-73
2022/03/30 00:35:54;;;;;;;11.00;3.17;;;;;;;3.91;63.63;100323.13;5067871;28;20041;-73
2022/03/30 00:38:20;;;;;;;16.23;3.92;;;;;;;3.94;63.38;100328.22;5069494;28;20044;-73
2022/03/30 00:40:48;;;;;;;12.98;3.38;;;;;;;3.83;63.98;100327.72;5070956;28;20048;-73
2022/03/30 00:43:15;;;;;;;9.82;2.92;;;;;;;3.75;64.23;100325.34;5071627;28;20051;-73
2022/03/30 00:45:42;;;;;;;11.85;3.10;;;;;;;3.82;63.37;100320.81;5070582;28;20045;-73
2022/03/30 00:48:08;;;;;;;11.75;3.22;;;;;;;3.68;62.82;100326.44;5071596;28;20044;-73
2022/03/30 00:50:35;;;;;;;7.13;3.15;;;;;;;3.56;63.43;100326.78;5070816;28;20528;-73
2022/03/30 00:53:01;;;;;;;10.30;3.10;;;;;;;3.28;64.46;100329.34;5071105;28;20102;-73
2022/03/30 00:55:28;;;;;;;9.20;2.90;;;;;;;3.14;65.48;100330.63;5072060;28;20093;-72
2022/03/30 00:57:56;;;;;;;8.45;3.00;;;;;;;3.10;66.23;100327.28;5071443;28;20093;-73
2022/03/30 01:00:22;;;;;;;10.93;3.38;;;;;;;2.98;66.69;100326.75;5070651;28;20045;-73
2022/03/30 01:02:50;;;;;;;12.77;3.58;;;;;;;2.87;66.97;100330.47;5051642;28;20052;-72
2022/03/30 01:05:17;;;;;;;15.27;3.10;;;;;;;2.82;67.35;100326.31;5062101;28;20090;-72
2022/03/30 01:07:43;;;;;;;13.98;2.95;;;;;;;2.76;67.29;100327.34;5071058;28;20117;-72
2022/03/30 01:10:11;;;;;;;10.75;3.08;;;;;;;2.88;66.65;100326.97;5069672;28;20169;-72
2022/03/30 01:12:39;;;;;;;10.15;2.90;;;;;;;3.04;65.64;100322.25;5069972;28;20096;-72
2022/03/30 01:15:09;;;;;;;10.90;3.35;;;;;;;2.88;65.78;100326.97;5070162;28;20044;-72
2022/03/30 01:17:37;;;;;;;9.63;2.85;;;;;;;3.15;65.14;100320.19;5071119;28;20059;-72
2022/03/30 01:20:04;;;;;;;10.27;3.58;;;;;;;3.38;64.43;100319.56;5070204;28;20185;-72
2022/03/30 01:22:33;;;;;;;5.57;2.60;;;;;;;3.49;63.71;100316.63;5070645;28;20048;-73
2022/03/30 01:25:00;;;;;;;7.97;2.95;;;;;;;3.53;62.67;100310.47;5070975;28;20569;-73
2022/03/30 01:27:26;;;;;;;11.25;3.95;;;;;;;3.62;62.53;100302.44;5071246;28;20098;-73
2022/03/30 01:32:37;;;;;;;5.82;3.05;;;;;;;3.59;62.19;100293.00;5070140;28;20055;-72
2022/03/30 01:35:06;;;;;;;9.63;2.90;;;;;;;3.59;62.36;100290.41;5070381;28;20047;-72
2022/03/30 01:37:34;;;;;;;7.10;2.45;;;;;;;3.42;62.57;100290.91;5070469;28;20071;-72
2022/03/30 01:40:04;;;;;;;10.57;2.70;;;;;;;3.42;62.77;100287.47;5069189;28;20045;-72
2022/03/30 01:42:31;;;;;;;9.38;2.58;;;;;;;3.33;63.23;100286.00;5068603;28;20040;-72
2022/03/30 01:44:58;;;;;;;8.75;2.75;;;;;;;3.29;62.81;100281.78;5070730;28;20041;-72
2022/03/30 01:47:25;;;;;;;13.00;3.63;;;;;;;3.27;63.05;100280.16;5070244;28;20074;-72
2022/03/30 01:49:51;;;;;;;6.75;2.70;;;;;;;3.16;63.47;100275.28;5067689;28;20053;-72
2022/03/30 01:52:18;;;;;;;9.88;2.50;;;;;;;3.15;63.74;100283.09;5069679;28;20048;-72
2022/03/30 01:54:46;;;;;;;7.85;2.15;;;;;;;3.34;63.34;100266.13;5070494;28;20558;-73
2022/03/30 01:57:13;;;;;;;8.23;2.90;;;;;;;3.51;63.13;100276.81;5070265;28;20037;-73
2022/03/30 01:59:41;;;;;;;7.45;2.35;;;;;;;3.56;63.07;100269.75;5069204;28;20487;-73
2022/03/30 02:02:08;;;;;;;8.63;1.95;;;;;;;3.36;64.38;100266.94;5070586;28;20049;-73
2022/03/30 02:04:36;;;;;;;10.82;3.13;;;;;;;2.92;65.92;100269.03;5070187;28;20124;-73
2022/03/30 02:07:04;;;;;;;11.50;2.50;;;;;;;3.11;65.83;100278.88;5066735;28;20389;-73
2022/03/30 02:09:30;;;;;;;11.27;3.30;;;;;;;3.38;65.47;100273.75;5069292;28;20108;-73
2022/03/30 02:11:59;;;;;;;10.10;2.35;;;;;;;3.80;64.26;100273.34;5069617;28;20090;-73
2022/03/30 02:14:26;;;;;;;13.68;3.15;;;;;;;3.74;64.11;100258.81;5069886;28;20094;-73
2022/03/30 02:16:53;;;;;;;11.50;2.75;;;;;;;3.58;64.69;100261.94;5069602;28;20040;-73
2022/03/30 02:19:19;;;;;;;6.30;2.17;;;;;;;3.43;65.18;100266.72;5069076;28;20057;-73
2022/03/30 02:21:45;;;;;;;10.43;2.95;;;;;;;3.34;65.82;100266.97;5070048;28;20044;-73
2022/03/30 02:24:12;;;;;;;9.02;2.80;;;;;;;3.31;65.78;100263.63;5069762;28;20094;-73
2022/03/30 02:26:38;;;;;;;8.95;2.85;;;;;;;3.20;65.89;100265.69;5069479;28;20044;-73
2022/03/30 02:29:06;;;;;;;9.88;2.40;;;;;;;3.12;66.06;100267.63;5069153;28;20040;-73
2022/03/30 02:31:33;;;;;;;11.40;2.65;;;;;;;3.24;65.74;100265.56;5068935;28;20055;-73
2022/03/30 02:34:00;;;;;;;11.80;2.67;;;;;;;3.24;65.24;100262.09;5069413;28;20040;-73
2022/03/30 02:36:26;;;;;;;13.70;3.10;;;;;;;3.14;65.16;100265.88;5069639;28;20051;-74
2022/03/30 02:38:53;;;;;;;7.97;2.50;;;;;;;2.83;66.03;100264.13;5068851;28;20047;-73
2022/03/30 02:41:19;;;;;;;8.93;2.33;;;;;;;2.78;66.53;100263.41;5069376;28;20048;-73
2022/03/30 02:43:46;;;;;;;8.57;2.67;;;;;;;2.84;66.78;100271.03;5069401;28;20049;-74
2022/03/30 02:46:13;;;;;;;4.85;2.60;;;;;;;2.62;67.41;100264.72;5068970;28;20098;-73
2022/03/30 02:48:40;;;;;;;8.18;2.30;;;;;;;2.63;67.60;100262.97;5068718;28;20048;-73
2022/03/30 02:51:08;;;;;;;7.55;2.47;;;;;;;2.37;68.40;100255.88;5068988;28;20466;-73
2022/03/30 02:53:35;;;;;;;11.77;3.05;;;;;;;2.06;69.53;100253.25;5069201;28;20064;-73
2022/03/30 02:56:02;;;;;;;7.80;2.70;;;;;;;2.02;70.24;100261.13;5068976;28;20052;-73
2022/03/30 02:58:29;;;;;;;7.60;2.45;;;;;;;1.83;70.49;100246.06;5068900;28;20045;-73
2022/03/30 03:00:56;;;;;;;8.32;3.75;;;;;;;1.89;70.66;100245.88;5068232;28;20037;-73
2022/03/30 03:03:24;;;;;;;9.25;2.65;;;;;;;2.26;68.82;100244.97;5069233;28;20044;-73
2022/03/30 03:05:51;;;;;;;10.45;2.70;;;;;;;2.45;67.57;100246.19;5069075;28;20099;-73
2022/03/30 03:08:17;;;;;;;11.13;3.15;;;;;;;2.55;66.92;100245.06;5068397;28;20071;-73
2022/03/30 03:10:45;;;;;;;17.13;3.13;;;;;;;2.41;65.38;100254.91;5068448;28;20098;-73
2022/03/30 03:13:13;;;;;;;9.02;2.63;;;;;;;2.48;64.99;100253.88;5068791;28;20041;-73
2022/03/30 03:15:41;;;;;;;9.88;2.30;;;;;;;2.51;64.75;100246.06;5068363;28;20098;-73
2022/03/30 03:18:07;;;;;;;15.15;2.78;;;;;;;2.50;64.52;100246.94;5068320;28;20040;-73
2022/03/30 03:20:36;;;;;;;7.28;2.50;;;;;;;2.43;64.81;100242.81;5068282;28;20045;-73
2022/03/30 03:23:03;;;;;;;15.80;3.65;;;;;;;2.38;65.27;100242.06;5068309;28;20054;-73
2022/03/30 03:25:32;;;;;;;12.50;2.40;;;;;;;2.53;65.32;100239.06;5068172;28;20049;-73
2022/03/30 03:27:59;;;;;;;11.85;3.05;;;;;;;2.52;65.57;100237.38;5068874;28;20064;-73
2022/03/30 03:30:26;;;;;;;7.00;2.28;;;;;;;2.65;65.13;100241.34;5068135;28;20041;-73
2022/03/30 03:32:53;;;;;;;5.90;2.58;;;;;;;2.71;65.46;100243.75;5068176;28;20040;-73
2022/03/30 03:35:19;;;;;;;10.73;2.83;;;;;;;2.55;66.70;100246.81;5068467;28;20058;-73
2022/03/30 03:37:47;;;;;;;14.30;3.13;;;;;;;2.54;66.82;100243.38;5067986;28;20079;-73
2022/03/30 03:40:13;;;;;;;10.50;2.75;;;;;;;2.53;66.99;100239.06;5067997;28;20093;-72
2022/03/30 03:42:40;;;;;;;10.00;3.28;;;;;;;2.44;67.03;100247.06;5068205;28;20048;-72
2022/03/30 03:45:07;;;;;;;8.82;2.95;;;;;;;2.36;67.33;100241.28;5068132;28;20068;-72
2022/03/30 03:47:34;;;;;;;6.28;2.50;;;;;;;2.28;66.89;100240.63;5067923;28;20106;-72
2022/03/30 03:50:01;;;;;;;9.38;2.92;;;;;;;2.28;66.58;100243.22;5067757;28;20047;-72
2022/03/30 03:52:27;;;;;;;8.00;2.83;;;;;;;2.20;66.40;100234.78;5068781;28;20090;-72
2022/03/30 03:54:55;;;;;;;11.57;3.33;;;;;;;2.27;66.02;100228.56;5068024;28;20060;-72
2022/03/30 03:57:21;;;;;;;10.80;3.50;;;;;;;2.16;64.72;100218.50;5068071;28;20049;-72
2022/03/30 03:59:47;;;;;;;7.90;2.80;;;;;;;2.09;65.36;100221.28;5067532;28;20068;-72
2022/03/30 04:02:14;;;;;;;11.00;3.65;;;;;;;1.66;67.61;100221.50;5068350;28;20048;-72
2022/03/30 04:04:40;;;;;;;7.85;3.28;;;;;;;1.30;69.72;100223.16;5068699;28;20117;-72
2022/03/30 04:07:07;;;;;;;7.68;3.40;;;;;;;1.35;70.24;100226.50;5068308;28;20516;-72
2022/03/30 04:09:33;;;;;;;8.27;3.17;;;;;;;1.51;69.85;100214.94;5067211;28;20049;-72
2022/03/30 04:12:01;;;;;;;9.15;2.70;;;;;;;1.80;68.74;100215.09;5068900;28;20098;-72
2022/03/30 04:14:27;;;;;;;7.40;2.83;;;;;;;1.82;66.55;100212.47;5071605;28;20068;-72
2022/03/30 04:16:53;;;;;;;18.67;2.95;;;;;;;1.93;65.84;100207.88;5071919;28;20044;-72
2022/03/30 04:19:20;;;;;;;9.98;3.10;;;;;;;2.04;66.02;100208.47;5071350;28;20053;-72
2022/03/30 04:21:46;;;;;;;8.98;2.72;;;;;;;1.89;66.83;100201.94;5072019;28;20052;-72
2022/03/30 04:24:13;;;;;;;11.40;3.33;;;;;;;1.77;67.88;100209.16;5071982;28;20040;-72
2022/03/30 04:26:40;;;;;;;16.83;3.30;;;;;;;1.67;68.03;100205.94;5071625;28;20090;-72
2022/03/30 04:29:08;;;;;;;7.80;3.03;;;;;;;1.68;68.02;100204.22;5071018;28;20094;-72
2022/03/30 04:31:34;;;;;;;13.00;3.70;;;;;;;1.82;67.77;100212.47;5071840;28;20390;-72
2022/03/30 04:34:01;;;;;;;8.73;3.13;;;;;;;1.72;67.96;100209.28;5071753;28;20496;-72
2022/03/30 04:36:27;;;;;;;10.25;2.95;;;;;;;1.82;67.73;100202.97;5070222;28;20036;-74
2022/03/30 04:38:54;;;;;;;9.57;3.90;;;;;;;1.89;67.18;100201.09;5062720;28;21891;-74
2022/03/30 04:41:22;;;;;;;12.13;2.83;;;;;;;1.76;67.69;100207.47;5071757;28;20052;-73
2022/03/30 04:43:48;;;;;;;8.35;3.10;;;;;;;1.67;68.59;100200.75;5071500;28;20106;-73
2022/03/30 04:46:17;;;;;;;17.63;3.25;;;;;;;1.65;68.19;100194.81;5070684;28;20110;-73
2022/03/30 04:48:44;;;;;;;8.13;2.58;;;;;;;1.57;68.81;100201.88;5070327;28;20098;-73
2022/03/30 04:51:10;;;;;;;14.32;2.90;;;;;;;1.54;69.29;100195.94;5070847;28;20040;-73
2022/03/30 04:53:37;;;;;;;7.95;3.35;;;;;;;1.76;68.84;100197.97;5070388;28;20097;-72
2022/03/30 04:56:03;;;;;;;10.55;3.03;;;;;;;1.74;68.23;100196.28;5071256;28;20052;-72
2022/03/30 04:58:30;;;;;;;7.45;3.33;;;;;;;1.78;68.08;100196.19;5071604;28;20044;-73
2022/03/30 05:00:56;;;;;;;15.55;3.20;;;;;;;1.85;67.46;100189.13;5070595;28;20408;-73
2022/03/30 05:03:24;;;;;;;14.25;3.22;;;;;;;1.74;67.75;100183.38;5069936;28;20040;-73
2022/03/30 05:05:50;;;;;;;9.30;2.90;;;;;;;1.84;67.64;100190.88;5069478;28;20412;-73
2022/03/30 05:08:17;;;;;;;9.02;2.75;;;;;;;1.73;67.11;100190.31;5070164;28;20462;-73
2022/03/30 05:10:46;;;;;;;7.78;3.20;;;;;;;1.58;67.51;100187.22;5069924;28;20419;-72
2022/03/30 05:13:13;;;;;;;16.30;3.35;;;;;;;1.27;69.40;100190.53;5070313;28;20036;-72
2022/03/30 05:15:39;;;;;;;12.98;3.40;;;;;;;1.27;70.64;100194.84;5070151;28;20056;-72
2022/03/30 05:18:06;;;;;;;5.93;2.95;;;;;;;1.39;70.46;100190.25;5070709;28;20416;-73
2022/03/30 05:20:35;;;;;;;12.82;3.67;;;;;;;1.28;71.20;100194.81;5070125;28;20051;-73
2022/03/30 05:23:02;;;;;;;11.30;3.80;;;;;;;1.08;72.26;100193.53;5070348;28;20044;-72
2022/03/30 05:25:29;;;;;;;18.63;3.78;;;;;;;1.14;72.54;100196.00;5070355;28;20047;-72
2022/03/30 05:27:55;;;;;;;13.38;3.53;;;;;;;1.48;71.55;100191.75;5070437;28;20044;-72
2022/03/30 05:30:22;;;;;;;13.70;3.50;;;;;;;1.83;71.08;100193.50;5069572;28;20044;-72
2022/03/30 05:32:49;;;;;;;9.82;3.55;;;;;;;2.03;70.67;100195.59;5069993;28;20076;-72
2022/03/30 05:35:16;;;;;;;9.68;3.08;;;;;;;1.89;69.38;100199.34;5070871;28;20051;-72
2022/03/30 05:37:47;;;;;;;8.07;3.50;;;;;;;1.71;70.78;100193.78;5070459;28;20515;-73
2022/03/30 05:40:15;;;;;;;8.32;3.10;;;;;;;2.00;70.25;100191.31;5068648;28;20123;-72
2022/03/30 05:42:41;;;;;;;12.73;3.50;;;;;;;2.21;69.61;100195.09;5069878;28;20056;-72
2022/03/30 05:45:08;;;;;;;9.30;3.03;;;;;;;2.48;69.21;100198.72;5070000;28;20097;-72
2022/03/30 05:47:35;;;;;;;9.55;3.55;;;;;;;2.43;69.86;100201.41;5070290;28;20113;-72
2022/03/30 05:50:02;;;;;;;12.25;3.53;;;;;;;2.68;69.60;100202.44;5069707;28;20048;-72
2022/03/30 05:52:29;;;;;;;10.90;3.70;;;;;;;2.99;68.83;100198.97;5070353;28;20044;-72
2022/03/30 05:54:57;;;;;;;8.38;3.15;;;;;;;3.23;68.62;100190.44;5070054;28;20040;-72
2022/03/30 05:57:23;;;;;;;12.75;3.45;;;;;;;3.32;69.11;100182.41;5070182;28;20052;-72
2022/03/30 05:59:51;;;;;;;10.45;3.30;;;;;;;3.48;68.71;100173.22;5069407;28;20044;-72
2022/03/30 06:02:17;;;;;;;8.73;3.58;;;;;;;3.63;68.35;100172.75;5069739;28;20044;-72
2022/03/30 06:04:45;;;;;;;11.27;3.50;;;;;;;3.62;68.05;100171.03;5070366;28;20519;-72
2022/03/30 06:07:11;;;;;;;13.02;3.70;;;;;;;3.61;68.96;100171.09;5069772;28;20044;-71
2022/03/30 06:09:38;;;;;;;9.23;3.70;;;;;;;3.69;68.84;100166.53;5068898;28;20048;-72
2022/03/30 06:12:06;;;;;;;11.25;3.75;;;;;;;3.84;68.33;100169.44;5069772;28;20048;-72
2022/03/30 06:14:33;;;;;;;11.20;3.42;;;;;;;3.90;67.81;100164.06;5069654;28;20114;-71
2022/03/30 06:17:01;;;;;;;11.85;3.20;;;;;;;4.13;67.42;100165.88;5063621;28;20557;-71
2022/03/30 06:19:28;;;;;;;13.52;3.10;;;;;;;4.20;67.46;100163.91;5069255;28;20036;-71
2022/03/30 06:21:54;;;;;;;8.30;3.13;;;;;;;4.40;66.79;100164.06;5069156;28;20110;-71
2022/03/30 06:24:20;;;;;;;14.93;3.92;;;;;;;4.68;66.83;100162.16;5069509;28;20550;-71
2022/03/30 06:26:47;;;;;;;8.80;3.53;;;;;;;4.91;65.97;100159.53;5069660;28;20056;-71
2022/03/30 06:29:15;;;;;;;11.88;3.28;;;;;;;4.94;65.56;100160.34;5068750;28;20040;-71
2022/03/30 06:31:41;;;;;;;12.20;3.25;;;;;;;4.99;65.67;100161.03;5068888;28;20048;-71
2022/03/30 06:34:07;;;;;;;11.57;3.35;;;;;;;5.39;65.35;100164.59;5068981;28;20044;-70
2022/03/30 06:36:37;;;;;;;10.90;3.83;;;;;;;5.93;62.85;100168.50;5068906;28;20098;-70
2022/03/30 06:39:04;;;;;;;15.80;3.90;;;;;;;6.01;64.44;100163.84;5068658;28;20489;-70
2022/03/30 06:41:30;;;;;;;14.57;3.65;;;;;;;6.09;63.92;100176.53;5070076;28;20048;-71
2022/03/30 06:43:57;;;;;;;12.10;3.80;;;;;;;6.18;64.10;100170.91;5069350;28;20087;-71
2022/03/30 06:46:24;;;;;;;8.77;3.30;;;;;;;6.20;63.65;100163.91;5067483;28;20048;-71
2022/03/30 06:48:51;;;;;;;14.00;3.60;;;;;;;6.32;63.72;100166.81;5059819;28;20068;-72
2022/03/30 06:51:17;;;;;;;10.55;3.55;;;;;;;6.24;63.50;100160.25;5057856;28;20416;-72
2022/03/30 06:53:44;;;;;;;11.85;3.08;;;;;;;5.91;64.56;100151.28;5064047;28;20060;-72
2022/03/30 06:56:11;;;;;;;11.73;3.35;;;;;;;5.93;63.88;100149.44;5051012;28;20045;-72
2022/03/30 06:58:37;;;;;;;16.05;3.25;;;;;;;6.14;63.88;100154.59;5057302;28;20151;-72
2022/03/30 07:01:03;;;;;;;9.15;3.15;;;;;;;6.39;64.82;100153.53;5067264;28;20040;-72
2022/03/30 07:03:31;;;;;;;13.38;4.18;;;;;;;6.50;63.92;100149.56;5068539;28;20037;-72
2022/03/30 07:05:58;;;;;;;14.23;3.33;;;;;;;6.53;63.10;100149.41;5068416;28;20048;-72
2022/03/30 07:11:08;;;;;;;13.70;3.90;;;;;;;6.91;62.46;100152.06;5068151;28;20089;-72
2022/03/30 07:13:35;;;;;;;11.20;2.88;;;;;;;7.21;61.48;100145.38;5067659;28;20044;-72
2022/03/30 07:16:02;;;;;;;13.00;3.22;;;;;;;7.73;60.02;100151.56;5068951;28;20565;-72
2022/03/30 07:18:28;;;;;;;11.48;3.95;;;;;;;7.95;59.04;100146.94;5068530;28;20389;-72
2022/03/30 07:20:56;;;;;;;11.38;3.13;;;;;;;7.98;58.52;100149.41;5067945;28;20071;-72
2022/03/30 07:23:23;;;;;;;9.55;3.25;;;;;;;8.03;58.60;100134.38;5068197;28;20048;-72
2022/03/30 07:25:50;;;;;;;10.02;2.72;;;;;;;8.42;56.90;100134.13;5068416;28;20150;-72
2022/03/30 07:28:17;;;;;;;8.95;2.70;;;;;;;8.56;56.76;100136.00;5068427;28;20059;-72
2022/03/30 07:30:44;;;;;;;10.13;2.80;;;;;;;8.08;57.14;100144.56;5067194;28;20497;-72
2022/03/30 07:33:11;;;;;;;6.70;2.88;;;;;;;8.37;57.07;100130.06;5063983;28;20044;-72
2022/03/30 07:35:39;;;;;;;9.90;2.70;;;;;;;8.93;56.46;100130.50;5067448;28;20057;-72
2022/03/30 07:38:07;;;;;;;13.60;3.00;;;;;;;9.36;54.90;100131.56;5057432;28;20504;-72
2022/03/30 07:40:33;;;;;;;8.88;3.00;;;;;;;9.19;55.63;100127.28;5062359;28;20067;-72
2022/03/30 07:43:00;;;;;;;11.95;3.00;;;;;;;9.51;55.26;100135.94;5067092;28;20041;-72
2022/03/30 07:45:26;;;;;;;14.60;3.22;;;;;;;9.55;54.38;100123.50;5066359;28;20036;-72
2022/03/30 07:47:53;;;;;;;11.80;3.13;;;;;;;10.11;53.90;100130.69;5068619;28;20045;-71
2022/03/30 07:50:20;;;;;;;16.52;3.25;;;;;;;10.57;52.43;100119.13;5057123;28;20045;-71
2022/03/30 07:52:47;;;;;;;10.20;3.13;;;;;;;10.89;51.45;100111.91;5068098;28;20489;-72
2022/03/30 07:55:15;;;;;;;15.38;3.78;;;;;;;11.10;49.14;100114.94;5069158;28;20048;-72
2022/03/30 07:57:42;;;;;;;19.20;3.53;;;;;;;11.68;47.60;100120.75;5071047;28;20063;-72
2022/03/30 08:00:12;;;;;;;16.25;2.88;;;;;;;11.62;49.49;100113.28;5070815;28;20071;-72
2022/03/30 08:02:39;;;;;;;10.80;2.45;;;;;;;10.83;49.17;100111.47;5070508;28;20044;-72
2022/03/30 08:05:08;;;;;;;9.52;2.75;;;;;;;10.79;48.30;100117.84;5070169;28;20055;-71
2022/03/30 08:07:34;;;;;;;16.40;2.15;;;;;;;11.34;46.46;100123.91;5070717;28;20055;-71
2022/03/30 08:10:01;;;;;;;13.25;2.30;;;;;;;12.08;45.55;100116.31;5054548;28;20078;-71
2022/03/30 08:12:28;;;;;;;10.68;2.22;;;;;;;11.60;46.43;100122.19;5070702;28;20105;-71
2022/03/30 08:14:55;;;;;;;7.55;1.80;;;;;;;12.45;43.66;100116.44;5071317;28;20737;-71
2022/03/30 08:17:24;;;;;;;10.88;2.28;;;;;;;13.00;43.19;100105.50;5070039;28;20051;-71
2022/03/30 08:19:50;;;;;;;5.70;1.90;;;;;;;11.89;42.95;100115.03;5069113;28;20045;-71
2022/03/30 08:22:28;;;;;;;12.07;2.45;;;;;;;11.51;44.56;100122.78;5060499;28;20044;-71
2022/03/30 08:24:55;;;;;;;10.93;2.50;;;;;;;11.83;44.55;100110.19;5071023;28;20404;-71
2022/03/30 08:27:24;;;;;;;10.27;2.60;;;;;;;11.79;44.68;100121.88;5071017;28;20067;-71
2022/03/30 08:29:53;;;;;;;10.23;2.22;;;;;;;12.37;46.50;100111.72;5070335;28;20079;-71
2022/03/30 08:32:21;;;;;;;11.55;2.17;;;;;;;13.34;43.14;100111.84;5070493;28;20044;-71
2022/03/30 08:34:49;;;;;;;10.38;2.47;;;;;;;12.29;46.40;100115.81;5050533;28;20055;-71
2022/03/30 08:37:15;;;;;;;15.00;3.28;;;;;;;12.50;43.44;100114.31;5069143;28;20098;-71
2022/03/30 08:39:42;;;;;;;10.10;2.67;;;;;;;12.86;44.35;100113.56;5070139;28;20048;-71
2022/03/30 08:42:10;;;;;;;11.18;2.20;;;;;;;13.73;44.34;100116.81;5070844;28;20048;-71
2022/03/30 08:44:37;;;;;;;9.80;2.42;;;;;;;14.53;42.35;100110.66;5071398;28;20468;-71
2022/03/30 08:47:06;;;;;;;10.57;2.58;;;;;;;15.04;39.99;100099.56;5066681;28;20428;-71
2022/03/30 08:49:35;;;;;;;11.15;2.20;;;;;;;15.63;35.87;100099.19;5063791;28;20061;-71
2022/03/30 08:52:02;;;;;;;12.15;2.63;;;;;;;15.36;36.51;100097.81;5056678;28;20102;-71
2022/03/30 08:54:29;;;;;;;9.52;2.25;;;;;;;15.57;35.95;100096.09;5070727;28;20040;-71
2022/03/30 08:56:56;;;;;;;11.63;3.22;;;;;;;14.67;41.39;100098.19;5070945;28;20114;-71
2022/03/30 08:59:24;;;;;;;9.80;2.10;;;;;;;13.29;38.57;100099.03;5067595;28;20519;-71
2022/03/30 09:01:53;;;;;;;10.23;2.42;;;;;;;13.39;38.97;100100.03;5070178;28;20484;-71
2022/03/30 09:04:21;;;;;;;12.75;2.50;;;;;;;13.23;39.70;100091.53;5069453;28;20067;-72
2022/03/30 09:06:49;;;;;;;8.23;2.20;;;;;;;12.52;38.51;100094.88;5069893;28;20056;-71
2022/03/30 09:09:18;;;;;;;6.47;1.77;;;;;;;13.20;39.67;100083.88;5069877;28;20553;-71
2022/03/30 09:11:53;;;;;;;11.27;2.50;;;;;;;13.71;40.84;100081.81;5070509;28;20533;-71
2022/03/30 09:14:20;;;;;;;9.40;2.38;;;;;;;13.09;38.92;100068.00;5070894;28;20051;-71
2022/03/30 09:16:49;;;;;;;14.95;2.63;;;;;;;12.72;41.61;100079.47;5069893;28;20037;-71
2022/03/30 09:19:18;;;;;;;11.20;2.10;;;;;;;12.92;38.95;100071.00;5068365;28;20041;-72
2022/03/30 09:21:49;;;;;;;10.75;2.38;;;;;;;12.79;38.51;100072.81;5070332;28;20048;-72
2022/03/30 09:24:17;;;;;;;9.02;1.85;;;;;;;13.71;37.68;100071.28;5070342;28;20090;-72
2022/03/30 09:26:44;;;;;;;12.27;2.40;;;;;;;14.32;36.49;100078.00;5069036;28;20051;-72
2022/03/30 09:29:11;;;;;;;14.57;2.05;;;;;;;14.15;37.81;100074.00;5055676;28;20064;-72
2022/03/30 09:31:41;;;;;;;8.85;2.05;;;;;;;13.94;39.64;100088.00;5058136;28;20420;-72
2022/03/30 09:34:09;;;;;;;10.20;2.10;;;;;;;13.45;37.45;100081.13;5068469;28;20057;-72
2022/03/30 09:36:38;;;;;;;9.93;2.42;;;;;;;14.09;41.68;100079.78;5069621;28;20059;-72
2022/03/30 09:39:06;;;;;;;7.72;1.92;;;;;;;14.76;35.60;100068.41;5069183;28;20048;-72
2022/03/30 09:41:46;;;;;;;12.52;2.17;;;;;;;13.70;35.35;100077.53;5068290;28;20475;-72
2022/03/30 09:44:14;;;;;;;11.15;1.70;;;;;;;13.89;37.12;100076.97;5066299;28;20504;-72
2022/03/30 09:46:52;;;;;;;8.85;2.22;;;;;;;14.07;37.65;100073.78;5069237;28;20062;-72
2022/03/30 09:49:32;;;;;;;10.73;2.95;;;;;;;13.54;37.21;100076.97;5069023;28;20040;-72
2022/03/30 09:51:58;;;;;;;16.05;2.75;;;;;;;13.45;37.33;100080.31;5070194;28;20481;-72
2022/03/30 09:54:38;;;;;;;9.45;2.78;;;;;;;13.37;36.64;100072.97;5068751;28;20044;-72
2022/03/30 09:57:13;;;;;;;11.68;2.85;;;;;;;13.90;37.35;100068.09;5070063;28;20048;-72
2022/03/30 10:00:07;;;;;;;9.88;2.38;;;;;;;14.06;38.58;100066.81;5068927;28;20045;-72
2022/03/30 10:02:35;;;;;;;8.20;2.10;;;;;;;13.96;36.98;100065.00;5069133;28;20091;-72
2022/03/30 10:05:03;;;;;;;7.75;2.38;;;;;;;13.98;39.08;100071.00;5070384;28;20044;-72
2022/03/30 10:07:30;;;;;;;7.20;2.05;;;;;;;13.78;37.77;100056.72;5069438;28;20070;-72
2022/03/30 10:09:59;;;;;;;8.98;1.90;;;;;;;14.40;38.15;100061.63;5067787;28;20045;-72
2022/03/30 10:12:26;;;;;;;7.88;1.85;;;;;;;14.36;36.40;100050.47;5069299;28;20040;-72
2022/03/30 10:14:54;;;;;;;8.40;1.88;;;;;;;14.83;38.33;100051.13;5068887;28;20049;-73
2022/03/30 10:17:22;;;;;;;12.60;2.35;;;;;;;14.93;36.36;100044.16;5069765;28;20496;-73
2022/03/30 10:19:49;;;;;;;6.78;2.28;;;;;;;13.37;35.90;100051.91;5049011;28;20140;-72
2022/03/30 10:22:38;;;;;;;6.72;1.70;;;;;;;12.97;40.22;100053.09;5069516;28;20128;-72
2022/03/30 10:25:21;;;;;;;16.85;2.30;;;;;;;13.68;39.73;100041.69;5069406;28;20074;-72
2022/03/30 10:27:54;;;;;;;7.32;2.28;;;;;;;13.92;35.63;100043.31;5069772;28;20600;-72
2022/03/30 10:30:25;;;;;;;7.57;2.70;;;;;;;14.03;38.52;100039.88;5068483;28;20043;-72
2022/03/30 10:32:55;;;;;;;12.50;2.20;;;;;;;14.79;37.96;100034.72;5050946;28;20565;-72
2022/03/30 10:35:36;;;;;;;8.98;1.80;;;;;;;15.26;37.27;100027.38;5069596;28;20139;-72
2022/03/30 10:38:02;;;;;;;8.70;2.30;;;;;;;14.09;35.99;100028.84;5069727;28;20040;-72
2022/03/30 10:40:30;;;;;;;7.68;2.10;;;;;;;14.33;40.83;100023.47;5068562;28;20094;-72
2022/03/30 10:42:59;;;;;;;9.07;2.17;;;;;;;14.96;38.60;100030.72;5069286;28;20071;-72
2022/03/30 10:45:30;;;;;;;12.02;2.30;;;;;;;13.91;35.62;100027.63;5069123;28;20048;-72
2022/03/30 10:48:07;;;;;;;9.27;2.15;;;;;;;13.97;37.48;100021.88;5068601;28;20040;-72
2022/03/30 10:50:35;;;;;;;11.77;2.00;;;;;;;14.50;38.53;100015.94;5068256;28;20036;-72
2022/03/30 10:53:01;;;;;;;7.43;2.00;;;;;;;15.01;39.78;100010.06;5068188;28;20094;-72
2022/03/30 10:55:38;;;;;;;9.90;2.13;;;;;;;15.17;38.09;100013.13;5056508;28;20103;-72
2022/03/30 10:58:06;;;;;;;10.88;2.25;;;;;;;14.95;39.65;99992.94;5067767;28;20046;-72
2022/03/30 11:00:36;;;;;;;10.50;2.20;;;;;;;14.58;36.26;100013.53;5068563;28;20044;-72
2022/03/30 11:03:10;;;;;;;12.52;2.63;;;;;;;14.03;38.95;100009.06;5068838;28;20086;-72
2022/03/30 11:05:37;;;;;;;9.25;2.50;;;;;;;14.03;36.17;100011.72;5068643;28;20052;-72
2022/03/30 11:08:05;;;;;;;7.88;2.30;;;;;;;14.10;36.27;100010.28;5069056;28;20090;-72
2022/03/30 11:10:46;;;;;;;9.63;2.42;;;;;;;14.30;39.33;100008.69;5067865;28;20055;-72
2022/03/30 11:13:12;;;;;;;9.93;2.00;;;;;;;14.52;37.21;100011.34;5067811;28;20462;-72
2022/03/30 11:16:11;;;;;;;9.23;2.88;;;;;;;13.70;41.25;99997.66;5068547;28;20052;-72
2022/03/30 11:18:54;;;;;;;12.38;2.42;;;;;;;14.68;39.93;99995.16;5067733;28;20455;-72
2022/03/30 11:21:21;;;;;;;10.90;2.13;;;;;;;14.82;36.30;99986.94;5068410;28;20051;-72
2022/03/30 11:24:18;;;;;;;10.60;2.35;;;;;;;15.04;37.45;99981.59;5068628;28;20045;-72
2022/03/30 11:27:20;;;;;;;11.00;2.38;;;;;;;13.87;37.23;99984.00;5068722;28;20036;-72
2022/03/30 11:30:05;;;;;;;10.13;2.13;;;;;;;14.32;41.03;99975.16;5067571;28;20059;-72
2022/03/30 11:32:53;;;;;;;11.23;2.28;;;;;;;15.06;41.83;99973.56;5056775;28;20044;-72
2022/03/30 11:35:21;;;;;;;13.07;2.42;;;;;;;15.46;37.42;99969.28;5067954;28;20373;-72
2022/03/30 11:37:50;;;;;;;5.88;2.05;;;;;;;15.28;36.01;99965.53;5067754;28;20045;-72